Time;durP1;ratioP1;P1;durP2;ratioP2;P2;SDS_P1;SDS_P2;PMS_P1;PMS_P2;Temp;Humidity;BMP_temperature;BMP_pressure;BME280_temperature;BME280_humidity;BME280_pressure;Samples;Min_cycle;Max_cycle;Signal;HPM_P1;HPM_P2
2022/06/13 00:01:49;;;;;;;8.87;7.97;;;18.00;99.90;;;18.22;81.68;94928.75;5068786;28;20967;-55
2022/06/13 00:04:17;;;;;;;8.03;7.33;;;17.90;99.90;;;18.21;81.53;94927.91;5070096;28;20473;-54
2022/06/13 00:06:44;;;;;;;9.23;7.60;;;17.90;99.90;;;18.22;81.23;94931.41;5079502;28;20609;-54
2022/06/13 00:09:13;;;;;;;8.03;7.23;;;17.90;99.90;;;18.22;81.90;94934.88;5074388;28;20950;-54
2022/06/13 00:11:40;;;;;;;10.03;7.60;;;17.90;99.90;;;18.21;81.16;94933.22;5074970;28;20466;-56
2022/06/13 00:14:08;;;;;;;12.33;7.30;;;17.90;99.90;;;18.20;81.29;94931.59;5077916;28;20470;-52
2022/06/13 00:16:35;;;;;;;8.43;7.53;;;17.90;99.90;;;18.19;81.89;94929.13;5075785;28;21085;-54
2022/06/13 00:19:02;;;;;;;11.30;7.00;;;17.90;99.90;;;18.17;81.10;94931.97;5070850;28;20850;-53
2022/06/13 00:21:32;;;;;;;9.70;7.77;;;17.90;99.90;;;18.15;81.05;94925.97;5073259;28;20881;-53
2022/06/13 00:24:01;;;;;;;7.70;7.00;;;17.90;99.90;;;18.15;81.23;94930.50;5068696;28;20545;-56
2022/06/13 00:26:31;;;;;;;7.90;7.10;;;17.90;99.90;;;18.14;81.05;94939.47;5075221;28;20554;-54
2022/06/13 00:28:59;;;;;;;8.80;7.00;;;17.90;99.90;;;18.13;81.61;94940.50;5078099;28;20525;-54
2022/06/13 00:31:26;;;;;;;9.30;7.73;;;17.90;99.90;;;18.13;81.13;94940.50;5078198;28;20470;-56
2022/06/13 00:33:54;;;;;;;7.67;6.97;;;17.90;99.90;;;18.14;81.59;94950.13;5078547;28;20466;-54
2022/06/13 00:36:23;;;;;;;8.57;7.67;;;17.90;99.90;;;18.12;81.17;94952.97;5073366;28;20470;-54
2022/06/13 00:38:50;;;;;;;9.20;7.27;;;17.90;99.90;;;18.12;81.81;94952.16;5073749;28;20474;-55
2022/06/13 00:41:23;;;;;;;7.50;6.87;;;17.80;99.90;;;18.11;81.72;94951.34;5070566;28;20478;-56
2022/06/13 00:43:52;;;;;;;8.67;7.87;;;17.90;99.90;;;18.10;81.29;94947.00;5060057;28;20884;-56
2022/06/13 00:46:21;;;;;;;10.30;8.13;;;17.80;99.90;;;18.08;81.82;94952.53;5070416;28;20498;-54
2022/06/13 00:48:48;;;;;;;7.87;7.27;;;17.80;99.90;;;18.08;81.37;94943.72;5078079;28;20884;-54
2022/06/13 00:51:16;;;;;;;17.20;7.80;;;17.80;99.90;;;18.05;81.19;94939.59;5077130;28;20505;-53
2022/06/13 00:53:43;;;;;;;8.07;7.23;;;17.80;99.90;;;18.04;81.44;94945.09;5076122;28;20458;-55
2022/06/13 00:56:12;;;;;;;9.30;7.60;;;17.80;99.90;;;18.02;81.27;94934.63;5074657;28;20499;-54
2022/06/13 00:58:42;;;;;;;7.93;7.20;;;17.80;99.90;;;18.01;81.06;94943.63;5073588;28;20891;-57
2022/06/13 01:01:10;;;;;;;7.53;6.90;;;17.70;99.90;;;17.98;81.01;94938.66;5068622;28;20506;-56
2022/06/13 01:03:38;;;;;;;7.70;7.10;;;17.70;99.90;;;17.97;81.61;94938.84;5073070;28;20541;-55
2022/06/13 01:06:06;;;;;;;8.87;6.53;;;17.70;99.90;;;17.95;80.98;94938.22;5068972;28;20502;-54
2022/06/13 01:08:36;;;;;;;10.07;6.83;;;17.70;99.90;;;17.91;81.20;94935.09;5068665;28;20915;-55
2022/06/13 01:11:16;;;;;;;7.50;6.80;;;17.70;99.90;;;17.90;81.61;94942.22;5079146;28;20501;-53
2022/06/13 01:14:22;;;;;;;9.53;6.77;;;17.60;99.90;;;17.87;81.35;94931.94;5078457;28;20472;-54
2022/06/13 01:17:04;;;;;;;12.73;7.70;;;17.60;99.90;;;17.86;81.35;94922.31;5074490;28;20466;-54
2022/06/13 01:20:14;;;;;;;7.80;7.10;;;17.60;99.90;;;17.87;81.75;94931.09;5072770;28;20497;-54
2022/06/13 01:23:47;;;;;;;11.03;6.40;;;17.60;99.90;;;17.84;81.62;94926.97;5074540;28;20918;-52
2022/06/13 01:26:52;;;;;;;7.87;7.13;;;17.60;99.90;;;17.83;81.61;94928.00;5062129;28;20490;-54
2022/06/13 01:29:43;;;;;;;7.97;7.27;;;17.60;99.90;;;17.82;81.16;94923.69;5064860;28;20883;-58
2022/06/13 01:32:19;;;;;;;8.33;7.10;;;17.60;99.90;;;17.80;81.63;94925.72;5077660;28;20567;-53
2022/06/13 01:34:52;;;;;;;6.60;6.10;;;17.50;99.90;;;17.79;81.81;94923.22;5074994;28;20481;-56
2022/06/13 01:37:29;;;;;;;9.67;6.97;;;17.50;99.90;;;17.77;81.49;94926.06;5071238;28;20993;-53
2022/06/13 01:40:08;;;;;;;7.27;6.57;;;17.50;99.90;;;17.76;81.38;94929.72;5072308;28;20482;-54
2022/06/13 01:42:43;;;;;;;7.70;7.00;;;17.50;99.90;;;17.75;81.73;94938.72;5069769;28;20449;-56
2022/06/13 01:45:14;;;;;;;7.70;6.93;;;17.50;99.90;;;17.73;81.15;94936.22;5069383;28;20524;-54
2022/06/13 01:47:50;;;;;;;9.40;7.20;;;17.50;99.90;;;17.71;81.56;94934.78;5070053;28;20889;-57
2022/06/13 01:50:23;;;;;;;10.80;7.23;;;17.50;99.90;;;17.68;80.73;94949.25;5067398;28;20826;-56
2022/06/13 01:52:57;;;;;;;9.73;6.27;;;17.40;99.90;;;17.65;81.43;94933.66;5072647;28;20450;-55
2022/06/13 01:55:28;;;;;;;8.77;6.20;;;17.40;99.90;;;17.62;80.63;94934.03;5074495;28;21052;-52
2022/06/13 01:58:02;;;;;;;7.47;6.83;;;17.40;99.90;;;17.57;81.09;94941.75;5076436;28;20522;-57
2022/06/13 02:00:30;;;;;;;7.13;6.50;;;17.40;99.90;;;17.54;80.51;94948.22;5070958;28;20470;-56
2022/06/13 02:03:01;;;;;;;10.13;6.60;;;17.30;99.90;;;17.52;81.46;94939.63;5072845;28;20490;-55
2022/06/13 02:05:32;;;;;;;10.90;6.40;;;17.30;99.90;;;17.51;81.00;94945.94;5074006;28;20485;-54
2022/06/13 02:08:10;;;;;;;11.20;6.70;;;17.30;99.90;;;17.51;80.84;94948.59;5069202;28;20780;-56
2022/06/13 02:10:40;;;;;;;6.87;6.17;;;17.30;99.90;;;17.48;81.17;94946.28;5064722;28;20486;-55
2022/06/13 02:13:09;;;;;;;6.60;6.00;;;17.30;99.90;;;17.48;81.33;94943.63;5073472;28;20434;-55
2022/06/13 02:15:40;;;;;;;16.10;6.27;;;17.30;99.90;;;17.48;80.85;94948.13;5068855;28;20869;-54
2022/06/13 02:18:12;;;;;;;9.60;7.20;;;17.30;99.90;;;17.46;80.92;94943.00;5079706;28;20462;-55
2022/06/13 02:20:43;;;;;;;9.70;6.53;;;17.20;99.90;;;17.46;81.39;94950.13;5071540;28;20481;-56
2022/06/13 02:23:12;;;;;;;11.03;6.40;;;17.20;99.90;;;17.44;81.17;94944.19;5070019;28;20462;-54
2022/06/13 02:25:45;;;;;;;8.10;6.60;;;17.20;99.90;;;17.43;80.97;94956.66;5074229;28;20514;-53
2022/06/13 02:28:17;;;;;;;11.83;6.73;;;17.20;99.90;;;17.41;81.27;94950.66;5067417;28;20466;-54
2022/06/13 02:30:46;;;;;;;12.30;6.83;;;17.20;99.90;;;17.40;81.25;94962.34;5067667;28;20483;-54
2022/06/13 02:33:19;;;;;;;16.17;6.63;;;17.10;99.90;;;17.40;81.27;94954.34;5067399;28;20470;-56
2022/06/13 02:35:48;;;;;;;9.70;6.93;;;17.20;99.90;;;17.40;81.08;94951.69;5078415;28;20481;-56
2022/06/13 02:38:18;;;;;;;6.57;5.83;;;17.20;99.90;;;17.38;81.37;94953.69;5076443;28;21024;-55
2022/06/13 02:40:48;;;;;;;8.67;6.83;;;17.20;99.90;;;17.40;81.18;94951.69;5074041;28;20893;-53
2022/06/13 02:43:18;;;;;;;6.40;5.80;;;17.10;99.90;;;17.40;81.29;94959.69;5073712;28;21009;-56
2022/06/13 02:45:49;;;;;;;7.33;6.63;;;17.10;99.90;;;17.38;81.17;94957.19;5073913;28;20490;-56
2022/06/13 02:48:20;;;;;;;7.00;6.50;;;17.20;99.90;;;17.38;81.21;94951.03;5071159;28;20457;-55
2022/06/13 02:50:52;;;;;;;7.23;6.47;;;17.20;99.90;;;17.38;80.98;94956.34;5073001;28;20474;-56
2022/06/13 02:53:33;;;;;;;7.67;6.87;;;17.10;99.90;;;17.38;81.00;94959.00;5075236;28;20457;-56
2022/06/13 02:56:09;;;;;;;14.57;6.03;;;17.10;99.90;;;17.36;81.19;94959.19;5068329;28;20865;-55
2022/06/13 02:58:41;;;;;;;7.70;6.70;;;17.20;99.90;;;17.35;80.93;94956.72;5075299;28;20455;-55
2022/06/13 03:01:14;;;;;;;7.57;6.83;;;17.10;99.90;;;17.35;81.08;94967.34;5073422;28;20858;-56
2022/06/13 03:03:47;;;;;;;7.17;6.50;;;17.10;99.90;;;17.33;81.22;94962.22;5067781;28;20459;-57
2022/06/13 03:06:21;;;;;;;9.87;6.67;;;17.10;99.90;;;17.33;81.10;94967.53;5073431;28;20528;-52
2022/06/13 03:08:59;;;;;;;7.43;6.73;;;17.10;99.90;;;17.34;81.49;94963.88;5067403;28;20458;-55
2022/06/13 03:11:38;;;;;;;12.00;6.90;;;17.10;99.90;;;17.34;81.62;94969.19;5072371;28;20483;-55
2022/06/13 03:14:19;;;;;;;6.57;6.03;;;17.10;99.90;;;17.35;81.52;94967.34;5081655;28;21044;-56
2022/06/13 03:16:53;;;;;;;6.90;6.20;;;17.10;99.90;;;17.36;81.32;94975.13;5077063;28;20480;-54
2022/06/13 03:19:26;;;;;;;12.30;6.40;;;17.10;99.90;;;17.35;81.50;94965.53;5078173;28;20446;-54
2022/06/13 03:21:56;;;;;;;10.40;7.17;;;17.10;99.90;;;17.37;81.77;94974.16;5076623;28;20640;-55
2022/06/13 03:24:27;;;;;;;12.03;6.40;;;17.10;99.90;;;17.38;81.92;94975.81;5077717;28;20463;-54
2022/06/13 03:26:57;;;;;;;10.97;7.97;;;17.10;99.90;;;17.39;81.24;94987.25;5077096;28;20488;-55
2022/06/13 03:29:29;;;;;;;11.47;7.80;;;17.20;99.90;;;17.40;81.58;94988.94;5074258;28;20959;-53
2022/06/13 03:31:58;;;;;;;7.17;6.47;;;17.20;99.90;;;17.39;81.14;94987.25;5076764;28;20469;-56
2022/06/13 03:34:29;;;;;;;12.27;7.80;;;17.20;99.90;;;17.39;80.86;94987.25;5079402;28;20470;-54
2022/06/13 03:37:00;;;;;;;13.77;8.10;;;17.20;99.90;;;17.39;81.20;94992.56;5076435;28;20450;-55
2022/06/13 03:39:30;;;;;;;7.30;6.20;;;17.20;99.90;;;17.41;81.64;94995.88;5073790;28;20816;-56
2022/06/13 03:42:03;;;;;;;8.13;7.20;;;17.20;99.90;;;17.44;81.49;94997.34;5076362;28;20975;-55
2022/06/13 03:44:32;;;;;;;7.53;6.83;;;17.20;99.90;;;17.47;81.29;95002.31;5080806;28;20466;-54
2022/06/13 03:47:03;;;;;;;7.87;7.07;;;17.20;99.90;;;17.50;81.63;95000.13;5078022;28;20558;-55
2022/06/13 03:49:34;;;;;;;9.13;8.03;;;17.30;99.90;;;17.54;81.71;94997.94;5074952;28;21015;-56
2022/06/13 03:52:02;;;;;;;9.23;8.20;;;17.30;99.90;;;17.56;81.79;94991.41;5077274;28;20442;-55
2022/06/13 03:54:34;;;;;;;7.70;7.00;;;17.30;99.90;;;17.59;81.82;94995.56;5078828;28;20478;-53
2022/06/13 03:57:05;;;;;;;17.33;8.40;;;17.40;99.90;;;17.63;81.35;94996.03;5074399;28;20673;-53
2022/06/13 03:59:36;;;;;;;7.47;6.67;;;17.40;99.90;;;17.65;81.31;95002.00;5076776;28;20475;-54
2022/06/13 04:02:05;;;;;;;9.00;6.60;;;17.40;99.90;;;17.68;81.88;94997.16;5078255;28;20461;-55
2022/06/13 04:04:36;;;;;;;12.37;7.03;;;17.40;99.90;;;17.72;81.45;94993.13;5077375;28;20470;-56
2022/06/13 04:07:04;;;;;;;7.50;6.80;;;17.50;99.90;;;17.78;81.76;94993.41;5075456;28;20477;-53
2022/06/13 04:09:35;;;;;;;7.33;6.70;;;17.50;99.90;;;17.81;81.75;94991.19;5081962;28;20481;-55
2022/06/13 04:12:21;;;;;;;8.03;7.33;;;17.60;99.90;;;17.88;81.49;94991.31;5072784;28;20966;-53
2022/06/13 04:15:21;;;;;;;13.90;8.30;;;17.60;99.90;;;17.94;81.96;95000.41;5073568;28;20492;-55
2022/06/13 04:17:54;;;;;;;9.50;8.17;;;17.70;99.90;;;17.98;81.29;94999.06;5077517;28;20466;-56
2022/06/13 04:20:27;;;;;;;12.10;7.40;;;17.70;99.90;;;18.03;81.89;94999.31;5078849;28;21011;-56
2022/06/13 04:22:58;;;;;;;8.80;7.97;;;17.80;99.90;;;18.06;81.37;94983.84;5074149;28;20461;-55
2022/06/13 04:25:28;;;;;;;8.90;8.00;;;17.80;99.90;;;18.12;81.77;94992.91;5073850;28;20501;-56
2022/06/13 04:28:01;;;;;;;8.47;7.27;;;17.90;99.90;;;18.17;81.61;94990.53;5076618;28;20490;-56
2022/06/13 04:30:30;;;;;;;10.53;6.90;;;17.90;99.90;;;18.24;81.74;94985.28;5075206;28;21047;-55
2022/06/13 04:33:05;;;;;;;10.23;8.87;;;18.00;99.90;;;18.28;81.46;94974.09;5077300;28;20962;-57
2022/06/13 04:35:34;;;;;;;9.17;8.33;;;18.00;99.90;;;18.32;80.90;94977.19;5076924;28;20473;-54
2022/06/13 04:38:03;;;;;;;11.50;8.77;;;18.00;99.90;;;18.36;81.53;94980.34;5073468;28;20457;-55
2022/06/13 04:40:30;;;;;;;8.90;8.00;;;18.10;99.90;;;18.39;80.98;94983.44;5074958;28;20490;-56
2022/06/13 04:42:57;;;;;;;9.03;8.20;;;18.10;99.90;;;18.43;81.17;94982.06;5080364;28;20454;-53
2022/06/13 04:45:27;;;;;;;9.90;8.83;;;18.20;99.90;;;18.47;81.37;94974.53;5071005;28;20494;-56
2022/06/13 04:47:56;;;;;;;9.53;8.57;;;18.20;99.90;;;18.53;80.94;94980.94;5077067;28;20512;-55
2022/06/13 04:50:29;;;;;;;10.60;7.80;;;18.30;99.90;;;18.59;81.55;94981.03;5073779;28;20513;-56
2022/06/13 04:52:58;;;;;;;9.13;8.13;;;18.30;99.90;;;18.64;80.94;94988.47;5070695;28;20462;-57
2022/06/13 04:55:29;;;;;;;8.33;7.60;;;18.40;99.90;;;18.69;80.98;94988.72;5074606;28;20491;-56
2022/06/13 04:57:56;;;;;;;9.97;9.00;;;18.40;99.90;;;18.72;80.94;94990.19;5074066;28;20462;-54
2022/06/13 05:00:24;;;;;;;8.63;7.83;;;18.50;99.90;;;18.74;81.16;94986.31;5077464;28;21010;-55
2022/06/13 05:02:54;;;;;;;7.90;7.10;;;18.50;99.90;;;18.78;81.02;94984.13;5077172;28;20534;-55
2022/06/13 05:05:30;;;;;;;8.00;7.00;;;18.50;99.90;;;18.82;80.58;94982.69;5077552;28;20528;-56
2022/06/13 05:07:59;;;;;;;11.10;7.60;;;18.50;99.90;;;18.86;81.41;94981.34;5076811;28;20967;-56
2022/06/13 05:10:29;;;;;;;12.90;8.37;;;18.60;99.90;;;18.92;80.91;94983.25;5073290;28;20611;-55
2022/06/13 05:12:56;;;;;;;10.73;8.43;;;18.60;99.90;;;18.97;81.62;94988.84;5077723;28;20454;-57
2022/06/13 05:15:25;;;;;;;17.73;7.97;;;18.70;99.90;;;19.05;81.01;94987.09;5076809;28;20482;-56
2022/06/13 05:18:23;;;;;;;11.53;8.53;;;18.70;99.90;;;19.17;81.28;94982.91;5076598;28;20450;-55
2022/06/13 05:20:59;;;;;;;8.37;7.57;;;18.80;99.90;;;19.31;81.57;94984.66;5074889;28;20904;-54
2022/06/13 05:23:51;;;;;;;10.40;6.93;;;19.00;99.90;;;19.49;81.51;94986.06;5072350;28;20508;-57
2022/06/13 05:26:20;;;;;;;9.83;7.23;;;19.10;99.90;;;19.66;81.37;94987.44;5076159;28;20546;-54
2022/06/13 05:28:48;;;;;;;8.43;7.63;;;19.30;99.90;;;19.82;80.54;94993.53;5077305;28;20503;-54
2022/06/13 05:31:19;;;;;;;8.87;7.87;;;19.40;99.90;;;19.96;80.32;94997.94;5075900;28;20465;-55
2022/06/13 05:33:47;;;;;;;8.43;7.60;;;19.60;99.90;;;20.13;80.16;94990.47;5070683;28;20534;-58
2022/06/13 05:36:17;;;;;;;7.73;6.97;;;19.80;99.90;;;20.36;80.07;94989.34;5078189;28;20470;-53
2022/06/13 05:38:47;;;;;;;7.90;7.10;;;19.90;99.90;;;20.58;79.17;94984.72;5077292;28;20457;-56
2022/06/13 05:41:15;;;;;;;9.30;6.57;;;20.10;99.90;;;20.80;78.43;94990.81;5076852;28;20475;-57
2022/06/13 05:43:42;;;;;;;6.57;6.00;;;20.40;99.90;;;21.00;77.99;94988.19;5076415;28;20470;-54
2022/06/13 05:46:09;;;;;;;7.10;6.47;;;20.60;99.90;;;21.18;77.19;94986.78;5075003;28;20490;-56
2022/06/13 05:48:37;;;;;;;8.20;6.93;;;20.70;99.90;;;21.33;76.43;94989.28;5078441;28;20494;-55
2022/06/13 05:51:04;;;;;;;6.47;5.73;;;20.90;99.90;;;21.46;76.09;94990.13;5077399;28;20860;-53
2022/06/13 05:53:31;;;;;;;6.70;6.10;;;21.00;99.90;;;21.60;75.14;94991.00;5078394;28;20667;-57
2022/06/13 05:56:02;;;;;;;12.20;5.87;;;21.10;99.90;;;21.75;75.25;94987.28;5077548;28;20488;-54
2022/06/13 05:58:29;;;;;;;5.57;5.17;;;21.30;99.90;;;21.91;74.83;94994.09;5076847;28;20803;-53
2022/06/13 06:00:58;;;;;;;5.63;5.13;;;21.40;99.90;;;22.01;73.39;94986.44;5073475;28;20477;-57
2022/06/13 06:03:26;;;;;;;10.33;5.93;;;21.60;99.90;;;22.07;73.24;94984.78;5076306;28;20465;-56
2022/06/13 06:05:53;;;;;;;5.70;5.20;;;21.70;99.90;;;22.14;72.21;94978.38;5075834;28;20488;-55
2022/06/13 06:08:22;;;;;;;7.63;5.97;;;21.70;99.90;;;22.25;72.10;94986.81;5077921;28;20501;-54
2022/06/13 06:10:50;;;;;;;6.30;5.83;;;21.80;99.90;;;22.36;72.61;94992.38;5077237;28;20465;-54
2022/06/13 06:13:19;;;;;;;10.03;6.70;;;21.90;99.90;;;22.49;71.74;94990.69;5078152;28;20821;-56
2022/06/13 06:15:47;;;;;;;10.63;5.30;;;22.00;99.90;;;22.62;71.33;94996.00;5076529;28;20815;-62
2022/06/13 06:18:15;;;;;;;7.13;6.00;;;22.10;99.90;;;22.75;71.22;94989.78;5075780;28;20447;-56
2022/06/13 06:20:42;;;;;;;7.13;5.97;;;22.30;99.90;;;22.88;70.04;94992.41;5077709;28;20992;-52
2022/06/13 06:23:10;;;;;;;6.20;5.60;;;22.40;99.90;;;23.04;70.88;94992.94;5076677;28;21031;-55
2022/06/13 06:25:37;;;;;;;6.30;5.70;;;22.60;99.90;;;23.23;70.33;94991.22;5075690;28;20525;-54
2022/06/13 06:28:05;;;;;;;7.63;6.10;;;22.80;99.90;;;23.39;69.07;94993.38;5073482;28;20494;-56
2022/06/13 06:30:34;;;;;;;7.87;5.60;;;22.90;99.90;;;23.54;68.86;95001.13;5076259;28;20549;-56
2022/06/13 06:33:01;;;;;;;6.40;5.80;;;23.10;99.90;;;23.67;68.44;95000.22;5074955;28;20922;-54
2022/06/13 06:35:30;;;;;;;7.80;6.10;;;23.20;99.90;;;23.77;67.62;94999.72;5075884;28;20841;-53
2022/06/13 06:37:59;;;;;;;5.60;5.20;;;23.30;99.90;;;23.87;67.97;94994.69;5073425;28;21180;-56
2022/06/13 06:40:27;;;;;;;7.07;5.40;;;23.40;99.90;;;23.97;67.05;94995.03;5077100;28;20475;-56
2022/06/13 06:42:54;;;;;;;6.20;5.37;;;23.50;99.90;;;24.06;67.11;94995.56;5076703;28;20486;-55
2022/06/13 06:45:22;;;;;;;7.70;6.33;;;23.60;99.90;;;24.13;66.37;94993.63;5076433;28;20582;-55
2022/06/13 06:47:50;;;;;;;6.30;5.60;;;23.70;99.90;;;24.16;66.00;95000.44;5080262;28;20955;-55
2022/06/13 06:50:19;;;;;;;8.87;6.97;;;23.70;99.90;;;24.14;65.81;94989.09;5080167;28;20465;-55
2022/06/13 06:52:47;;;;;;;6.07;5.57;;;23.70;99.90;;;24.15;65.27;94991.56;5081538;28;20488;-56
2022/06/13 07:00:45;;;;;;;11.40;5.93;;;23.90;99.90;;;24.50;65.33;94992.84;5078581;28;20483;-52
2022/06/13 07:03:14;;;;;;;10.33;5.93;;;24.00;99.90;;;24.62;64.94;94991.09;5079667;28;20529;-55
2022/06/13 07:05:42;;;;;;;8.80;4.93;;;24.10;99.90;;;24.72;64.64;94990.56;5077628;28;20465;-55
2022/06/13 07:08:09;;;;;;;9.40;4.87;;;24.20;99.50;;;24.81;64.13;94993.78;5078756;28;20482;-54
2022/06/13 07:10:36;;;;;;;8.83;5.80;;;24.30;99.30;;;24.83;64.48;94986.28;5079565;28;20477;-56
2022/06/13 07:13:03;;;;;;;5.77;5.37;;;24.30;99.10;;;24.90;63.82;94991.59;5081183;28;20537;-52
2022/06/13 07:15:31;;;;;;;5.50;4.83;;;24.40;99.10;;;25.05;63.71;94998.22;5077857;28;20470;-56
2022/06/13 07:17:58;;;;;;;4.90;4.50;;;24.50;98.80;;;25.22;62.98;94994.88;5079013;28;20980;-56
2022/06/13 07:20:27;;;;;;;5.63;4.17;;;24.70;98.60;;;25.29;62.69;94994.84;5081111;28;20473;-54
2022/06/13 07:22:55;;;;;;;6.93;4.53;;;24.80;98.00;;;25.34;62.36;94989.56;5079593;28;20471;-57
2022/06/13 07:25:25;;;;;;;6.80;5.00;;;24.80;97.80;;;25.33;61.70;94991.44;5078430;28;20473;-55
2022/06/13 07:27:53;;;;;;;9.10;4.90;;;24.80;97.10;;;25.33;61.45;94991.44;5076451;28;20473;-56
2022/06/13 07:30:23;;;;;;;4.87;4.47;;;24.80;97.10;;;25.41;61.60;94993.81;5079567;28;20469;-57
2022/06/13 07:32:51;;;;;;;7.33;4.63;;;24.90;97.30;;;25.58;61.64;94993.16;5080413;28;20962;-56
2022/06/13 07:35:20;;;;;;;4.90;4.50;;;25.00;97.20;;;25.74;61.41;94997.84;5079531;28;20538;-56
2022/06/13 07:40:36;;;;;;;6.33;4.13;;;25.30;96.70;;;26.06;60.18;94994.09;5074617;28;20500;-58
2022/06/13 07:43:04;;;;;;;7.43;4.10;;;25.50;96.20;;;26.15;60.08;94997.22;5078665;28;20478;-54
2022/06/13 07:45:36;;;;;;;21.20;4.87;;;25.60;96.10;;;26.22;59.81;94990.66;5077933;28;20462;-56
2022/06/13 07:48:04;;;;;;;8.47;4.23;;;25.60;95.80;;;26.35;59.61;94997.69;5081619;28;20542;-56
2022/06/13 07:50:32;;;;;;;4.20;3.87;;;25.80;95.70;;;26.42;59.18;94992.19;5073836;28;20471;-54
2022/06/13 07:53:00;;;;;;;7.43;4.07;;;25.80;95.00;;;26.56;58.46;94990.06;5079230;28;21019;-55
2022/06/13 07:55:28;;;;;;;5.33;3.73;;;26.00;94.60;;;26.73;57.99;94998.28;5077952;28;20565;-55
2022/06/13 07:57:55;;;;;;;4.43;4.00;;;26.10;94.40;;;26.89;57.59;94988.59;5079725;28;20476;-56
2022/06/13 08:00:25;;;;;;;4.57;4.17;;;26.30;93.90;;;27.03;57.74;94992.66;5079180;28;20470;-54
2022/06/13 08:02:53;;;;;;;4.67;3.83;;;26.50;93.90;;;27.16;56.80;94986.16;5077205;28;20450;-55
2022/06/13 08:05:21;;;;;;;15.00;7.33;;;26.60;93.20;;;27.22;56.34;94985.22;5077106;28;21014;-54
2022/06/13 08:07:48;;;;;;;7.27;4.67;;;26.70;92.80;;;27.25;55.82;94990.13;5079303;28;20497;-57
2022/06/13 08:10:17;;;;;;;4.30;3.70;;;26.70;92.40;;;27.29;55.79;94990.44;5078598;28;20474;-55
2022/06/13 08:12:45;;;;;;;8.50;3.87;;;26.80;92.30;;;27.32;55.10;94987.31;5081756;28;20986;-52
2022/06/13 08:15:12;;;;;;;4.13;3.83;;;26.80;91.90;;;27.35;55.13;94989.53;5076235;28;20478;-56
2022/06/13 08:17:40;;;;;;;3.93;2.97;;;26.80;91.60;;;27.34;54.83;94987.88;5074155;28;20454;-54
2022/06/13 08:20:09;;;;;;;12.63;4.70;;;26.80;91.10;;;27.34;54.73;94990.56;5078093;28;20474;-54
2022/06/13 08:22:43;;;;;;;4.20;3.67;;;26.90;91.30;;;27.46;55.13;94999.44;5079853;28;20809;-53
2022/06/13 08:25:17;;;;;;;9.37;4.50;;;26.90;91.40;;;27.66;54.69;94992.75;5078902;28;20465;-55
2022/06/13 08:27:44;;;;;;;4.17;3.80;;;27.00;91.10;;;27.82;54.12;94989.22;5074549;28;20448;-55
2022/06/13 08:30:12;;;;;;;7.10;3.70;;;27.30;90.20;;;28.01;52.69;94997.97;5077396;28;20470;-55
2022/06/13 08:32:40;;;;;;;5.00;3.80;;;27.40;88.40;;;28.19;50.67;94994.16;5079106;28;20461;-56
2022/06/13 08:35:08;;;;;;;4.00;3.60;;;27.60;85.80;;;28.33;51.68;94994.66;5078114;28;20470;-56
2022/06/13 08:37:35;;;;;;;4.93;4.10;;;27.80;85.20;;;28.43;52.00;94997.50;5079476;28;20441;-56
2022/06/13 08:40:03;;;;;;;9.73;4.67;;;27.90;86.00;;;28.55;52.42;94996.56;5073282;28;21013;-56
2022/06/13 08:42:34;;;;;;;3.73;3.30;;;28.00;86.10;;;28.67;51.26;94993.78;5076949;28;20909;-56
2022/06/13 08:45:04;;;;;;;5.07;3.33;;;28.10;85.00;;;28.83;50.23;94998.34;5077534;28;20216;-57
2022/06/13 08:47:41;;;;;;;5.30;3.90;;;28.30;81.20;;;28.91;48.56;94997.91;5077945;28;20447;-55
2022/06/13 08:50:20;;;;;;;4.43;2.70;;;28.40;79.40;;;28.87;49.03;94993.25;5070662;28;20474;-55
2022/06/13 08:52:52;;;;;;;4.17;3.70;;;28.40;79.70;;;28.85;49.25;94988.06;5078885;28;20441;-56
2022/06/13 08:55:28;;;;;;;4.63;3.20;;;28.40;79.80;;;28.87;48.90;94985.13;5077236;28;20488;-55
2022/06/13 08:58:02;;;;;;;4.03;3.70;;;28.40;80.00;;;28.87;49.38;94988.63;5078414;28;20441;-55
2022/06/13 09:00:30;;;;;;;3.13;2.90;;;28.40;79.60;;;28.85;49.01;94985.38;5082170;28;20540;-52
2022/06/13 09:03:02;;;;;;;4.37;3.50;;;28.40;78.90;;;28.70;49.56;94994.09;5073559;28;20542;-58
2022/06/13 09:05:34;;;;;;;5.37;2.73;;;28.30;78.10;;;28.60;49.63;94977.75;5079597;28;20668;-55
2022/06/13 09:08:07;;;;;;;6.03;2.40;;;28.20;77.90;;;28.52;48.28;94980.84;5078419;28;20879;-55
2022/06/13 09:10:37;;;;;;;10.07;3.33;;;28.10;77.50;;;28.40;47.01;94980.97;5073591;28;20474;-58
2022/06/13 09:13:10;;;;;;;2.50;2.40;;;28.00;74.30;;;28.31;45.29;94980.56;5076390;28;21027;-53
2022/06/13 09:15:41;;;;;;;3.23;2.93;;;27.80;70.20;;;28.15;46.71;94976.81;5076611;28;20868;-56
2022/06/13 09:18:23;;;;;;;4.40;3.17;;;27.70;72.30;;;27.95;48.99;94985.44;5075821;28;20477;-55
2022/06/13 09:20:54;;;;;;;3.73;3.20;;;27.60;75.30;;;27.93;50.03;94978.59;5076705;28;20474;-55
2022/06/13 09:23:29;;;;;;;3.67;3.27;;;27.50;77.50;;;28.05;49.30;94982.88;5077087;28;20817;-54
2022/06/13 09:26:02;;;;;;;3.20;3.00;;;27.60;76.00;;;28.24;49.18;94980.75;5077924;28;20550;-56
2022/06/13 09:28:35;;;;;;;3.80;2.70;;;27.70;76.80;;;28.36;47.80;94979.81;5078139;28;20478;-53
2022/06/13 09:31:07;;;;;;;3.33;3.13;;;27.80;74.20;;;28.43;49.02;94977.75;5076133;28;20838;-55
2022/06/13 09:33:35;;;;;;;4.63;2.70;;;27.90;76.10;;;28.53;49.34;94971.66;5078276;28;20441;-56
2022/06/13 09:36:09;;;;;;;5.83;3.00;;;28.00;76.50;;;28.59;47.75;94965.28;5077673;28;20482;-54
2022/06/13 09:38:40;;;;;;;12.73;2.70;;;28.00;74.10;;;28.68;47.82;94962.97;5077104;28;20701;-56
2022/06/13 09:41:21;;;;;;;4.37;3.07;;;28.10;75.00;;;28.84;46.93;94977.50;5077372;28;20476;-56
2022/06/13 09:44:00;;;;;;;6.20;2.50;;;28.30;72.00;;;28.94;46.34;94973.03;5079923;28;20449;-57
2022/06/13 09:46:33;;;;;;;2.87;2.60;;;28.40;70.90;;;29.00;46.64;94967.66;5074401;28;20470;-54
2022/06/13 09:49:14;;;;;;;3.23;2.93;;;28.50;71.20;;;29.12;46.82;94976.47;5077575;28;20512;-55
2022/06/13 09:51:53;;;;;;;5.97;3.33;;;28.50;71.50;;;29.25;44.95;94973.41;5074448;28;20450;-57
2022/06/13 09:54:31;;;;;;;2.97;2.67;;;28.70;69.30;;;29.30;45.76;94975.34;5074823;28;20208;-56
2022/06/13 09:57:06;;;;;;;7.43;2.23;;;28.80;69.10;;;29.36;44.86;94968.91;5075736;28;20199;-58
2022/06/13 09:59:48;;;;;;;2.70;2.60;;;28.80;67.50;;;29.45;46.73;94966.53;5077551;28;20528;-60
2022/06/13 10:02:21;;;;;;;3.13;2.83;;;28.90;69.70;;;29.54;45.19;94972.31;5074326;28;20441;-53
2022/06/13 10:04:54;;;;;;;5.30;3.00;;;29.00;67.50;;;29.61;45.34;94962.09;5076633;28;20780;-52
2022/06/13 10:07:23;;;;;;;4.10;3.10;;;29.10;66.90;;;29.67;45.25;94959.16;5076129;28;20200;-57
2022/06/13 10:09:54;;;;;;;3.63;2.93;;;29.20;68.10;;;29.71;44.83;94964.06;5077901;28;20728;-55
2022/06/13 10:12:31;;;;;;;2.93;2.73;;;29.20;65.80;;;29.75;45.05;94959.78;5078590;28;20715;-56
2022/06/13 10:15:17;;;;;;;9.70;3.43;;;29.20;66.90;;;29.76;44.77;94953.25;5076378;28;20304;-55
2022/06/13 10:18:00;;;;;;;4.90;4.50;;;29.30;66.80;;;29.63;43.76;94960.72;5071056;28;20653;-54
2022/06/13 10:20:33;;;;;;;11.10;3.60;;;29.20;64.20;;;29.61;44.97;94954.75;5077306;28;20227;-55
2022/06/13 10:23:06;;;;;;;4.40;3.30;;;29.10;65.40;;;29.68;45.62;94957.25;5070239;28;20203;-56
2022/06/13 10:25:52;;;;;;;9.03;3.63;;;29.20;66.00;;;29.66;44.25;94956.69;5077207;28;20216;-55
2022/06/13 10:28:39;;;;;;;4.17;3.70;;;29.20;64.80;;;29.52;44.15;94956.31;5072607;28;20200;-57
2022/06/13 10:31:15;;;;;;;4.50;3.23;;;29.10;65.10;;;29.40;44.96;94952.94;5072503;28;20226;-56
2022/06/13 10:33:50;;;;;;;7.13;4.27;;;29.00;65.60;;;29.30;44.50;94948.25;5076767;28;20200;-56
2022/06/13 10:36:22;;;;;;;4.03;3.83;;;28.90;65.30;;;29.18;45.34;94944.84;5073562;28;20287;-54
2022/06/13 10:38:57;;;;;;;4.93;3.90;;;28.70;65.00;;;29.05;45.16;94941.47;5076158;28;20507;-56
2022/06/13 10:41:26;;;;;;;5.20;2.97;;;28.60;65.00;;;29.01;45.51;94939.50;5077909;28;20830;-55
2022/06/13 10:43:53;;;;;;;3.53;3.33;;;28.50;65.10;;;29.02;45.91;94938.41;5076493;28;20282;-56
2022/06/13 10:46:22;;;;;;;6.70;3.20;;;28.50;65.60;;;29.07;45.65;94927.66;5074325;28;20849;-54